Search for airport 
image banner adimage banner adimage banner ad
image banner ad

DTTZ - Tozeur/Nefta

Located in Tozeur, Tunisia

ICAO - DTTZ, IATA - TOE

Data provided by Airmate  

General information

Coordinates: N33°56'23" E8°6'38"
Elevation is 287 feet MSL.
 
View others Airports in Tozeur Governorate

Operational data

Special qualification required
Current time UTC:
Current local time:
Weather
METAR: DTTZ 290800Z 09011KT CAVOK 30/16 Q1015
TAF: TAF DTTZ 282300Z 2900/2924 10011KT CAVOK BECMG 2910/2912 VRB03KT
View NOTAMs / SUP AIP / TFR affecting this airport [VIEW]
Communications frequencies: [VIEW]

Runways:

RWY identifierQFULength (ft)Width (ft)SurfaceLDA (ft)
0990°8406148ASP
27270°8406148

Airport contact information

Address: Tozeur Tunisia

Satellite view of DTTZ